sensor_id;sensor_type;location;lat;lon;timestamp;pressure;altitude;pressure_sealevel;temperature;humidity
80585;BME280;70137;56.482;9.154;2023-07-13T00:00:41;100776.56;;;13.58;79.49
80585;BME280;70137;56.482;9.154;2023-07-13T00:03:06;100780.53;;;13.54;80.64
80585;BME280;70137;56.482;9.154;2023-07-13T00:05:32;100777.66;;;13.49;79.95
80585;BME280;70137;56.482;9.154;2023-07-13T00:07:57;100768.41;;;13.46;80.35
80585;BME280;70137;56.482;9.154;2023-07-13T00:10:22;100778.75;;;13.39;81.49
80585;BME280;70137;56.482;9.154;2023-07-13T00:12:48;100762.69;;;13.36;81.68
80585;BME280;70137;56.482;9.154;2023-07-13T00:15:17;100764.66;;;13.34;81.32
80585;BME280;70137;56.482;9.154;2023-07-13T00:17:51;100770.06;;;13.32;81.13
80585;BME280;70137;56.482;9.154;2023-07-13T00:20:17;100768.97;;;13.27;81.71
80585;BME280;70137;56.482;9.154;2023-07-13T00:22:42;100769.34;;;13.24;81.97
80585;BME280;70137;56.482;9.154;2023-07-13T00:25:10;100759.91;;;13.23;81.46
80585;BME280;70137;56.482;9.154;2023-07-13T00:27:36;100760.88;;;13.22;81.66
80585;BME280;70137;56.482;9.154;2023-07-13T00:30:02;100760.88;;;13.22;81.55
80585;BME280;70137;56.482;9.154;2023-07-13T00:32:28;100757.47;;;13.21;82.49
80585;BME280;70137;56.482;9.154;2023-07-13T00:34:55;100759.44;;;13.19;82.89
80585;BME280;70137;56.482;9.154;2023-07-13T00:37:20;100756.38;;;13.15;82.41
80585;BME280;70137;56.482;9.154;2023-07-13T00:39:46;100752.34;;;13.13;82.80
80585;BME280;70137;56.482;9.154;2023-07-13T00:42:11;100748.75;;;13.14;82.89
80585;BME280;70137;56.482;9.154;2023-07-13T00:44:37;100759.78;;;13.16;82.12
80585;BME280;70137;56.482;9.154;2023-07-13T00:47:04;100752.34;;;13.13;82.82
80585;BME280;70137;56.482;9.154;2023-07-13T00:49:31;100756.75;;;13.12;82.93
80585;BME280;70137;56.482;9.154;2023-07-13T00:52:03;100749.09;;;13.11;82.47
80585;BME280;70137;56.482;9.154;2023-07-13T00:54:41;100749.09;;;13.11;82.93
80585;BME280;70137;56.482;9.154;2023-07-13T00:57:12;100741.13;;;13.12;82.47
80585;BME280;70137;56.482;9.154;2023-07-13T00:59:42;100741.94;;;13.13;82.63
80585;BME280;70137;56.482;9.154;2023-07-13T01:02:08;100738.34;;;13.14;82.41
80585;BME280;70137;56.482;9.154;2023-07-13T01:04:34;100739.13;;;13.14;82.16
80585;BME280;70137;56.482;9.154;2023-07-13T01:06:59;100745.97;;;13.15;82.58
80585;BME280;70137;56.482;9.154;2023-07-13T01:09:26;100745.97;;;13.15;82.61
80585;BME280;70137;56.482;9.154;2023-07-13T01:11:51;100747.94;;;13.13;82.38
80585;BME280;70137;56.482;9.154;2023-07-13T01:14:17;100754.75;;;13.14;82.98
80585;BME280;70137;56.482;9.154;2023-07-13T01:16:45;100753.16;;;13.13;82.99
80585;BME280;70137;56.482;9.154;2023-07-13T01:19:40;100743.88;;;13.11;82.69
80585;BME280;70137;56.482;9.154;2023-07-13T01:22:13;100744.88;;;13.10;82.72
80585;BME280;70137;56.482;9.154;2023-07-13T01:24:42;100742.25;;;13.10;82.94
80585;BME280;70137;56.482;9.154;2023-07-13T01:27:09;100746.47;;;13.11;82.65
80585;BME280;70137;56.482;9.154;2023-07-13T01:29:37;100744.34;;;13.14;83.20
80585;BME280;70137;56.482;9.154;2023-07-13T01:32:12;100748.38;;;13.17;83.06
80585;BME280;70137;56.482;9.154;2023-07-13T01:34:38;100753.41;;;13.18;82.71
80585;BME280;70137;56.482;9.154;2023-07-13T01:37:08;100755.66;;;13.22;83.44
80585;BME280;70137;56.482;9.154;2023-07-13T01:39:34;100752.91;;;13.23;83.23
80585;BME280;70137;56.482;9.154;2023-07-13T01:41:59;100752.72;;;13.25;83.37
80585;BME280;70137;56.482;9.154;2023-07-13T01:44:25;100744.72;;;13.26;84.33
80585;BME280;70137;56.482;9.154;2023-07-13T01:46:51;100744.53;;;13.28;83.43
80585;BME280;70137;56.482;9.154;2023-07-13T01:49:16;100744.97;;;13.31;83.99
80585;BME280;70137;56.482;9.154;2023-07-13T01:51:41;100740.44;;;13.33;83.97
80585;BME280;70137;56.482;9.154;2023-07-13T01:54:07;100741.03;;;13.35;84.69
80585;BME280;70137;56.482;9.154;2023-07-13T01:56:32;100741.03;;;13.35;84.99
80585;BME280;70137;56.482;9.154;2023-07-13T01:58:57;100739.44;;;13.34;85.10
80585;BME280;70137;56.482;9.154;2023-07-13T02:03:53;100737.44;;;13.36;84.56
80585;BME280;70137;56.482;9.154;2023-07-13T02:06:19;100740.69;;;13.38;84.77
80585;BME280;70137;56.482;9.154;2023-07-13T02:08:44;100753.50;;;13.40;85.11
80585;BME280;70137;56.482;9.154;2023-07-13T02:11:10;100752.69;;;13.39;85.49
80585;BME280;70137;56.482;9.154;2023-07-13T02:13:35;100773.19;;;13.42;85.35
80585;BME280;70137;56.482;9.154;2023-07-13T02:16:01;100764.72;;;13.40;85.15
80585;BME280;70137;56.482;9.154;2023-07-13T02:18:26;100761.50;;;13.38;86.25
80585;BME280;70137;56.482;9.154;2023-07-13T02:20:52;100760.88;;;13.36;85.71
80585;BME280;70137;56.482;9.154;2023-07-13T02:23:17;100753.88;;;13.37;86.83
80585;BME280;70137;56.482;9.154;2023-07-13T02:25:43;100754.69;;;13.37;86.68
80585;BME280;70137;56.482;9.154;2023-07-13T02:28:08;100751.91;;;13.39;86.31
80585;BME280;70137;56.482;9.154;2023-07-13T02:30:34;100750.75;;;13.41;86.19
80585;BME280;70137;56.482;9.154;2023-07-13T02:33:00;100753.16;;;13.43;86.70
80585;BME280;70137;56.482;9.154;2023-07-13T02:35:25;100750.38;;;13.44;86.87
80585;BME280;70137;56.482;9.154;2023-07-13T02:37:51;100750.38;;;13.44;86.62
80585;BME280;70137;56.482;9.154;2023-07-13T02:40:17;100748.75;;;13.43;86.65
80585;BME280;70137;56.482;9.154;2023-07-13T02:42:42;100746.78;;;13.45;87.12
80585;BME280;70137;56.482;9.154;2023-07-13T02:45:08;100752.00;;;13.45;86.74
80585;BME280;70137;56.482;9.154;2023-07-13T02:47:34;100752.78;;;13.46;86.83
80585;BME280;70137;56.482;9.154;2023-07-13T02:50:00;100757.81;;;13.48;86.69
80585;BME280;70137;56.482;9.154;2023-07-13T02:52:26;100756.19;;;13.46;86.31
80585;BME280;70137;56.482;9.154;2023-07-13T02:54:52;100753.59;;;13.46;87.32
80585;BME280;70137;56.482;9.154;2023-07-13T02:57:17;100747.59;;;13.46;86.25
80585;BME280;70137;56.482;9.154;2023-07-13T02:59:44;100750.38;;;13.44;86.08
80585;BME280;70137;56.482;9.154;2023-07-13T03:02:09;100749.75;;;13.42;85.89
80585;BME280;70137;56.482;9.154;2023-07-13T03:04:36;100747.50;;;13.39;86.08
80585;BME280;70137;56.482;9.154;2023-07-13T03:07:01;100737.88;;;13.40;86.53
80585;BME280;70137;56.482;9.154;2023-07-13T03:09:27;100741.28;;;13.40;86.13
80585;BME280;70137;56.482;9.154;2023-07-13T03:11:55;100740.34;;;13.41;86.48
80585;BME280;70137;56.482;9.154;2023-07-13T03:14:24;100746.34;;;13.42;86.36
80585;BME280;70137;56.482;9.154;2023-07-13T03:16:49;100739.97;;;13.44;85.77
80585;BME280;70137;56.482;9.154;2023-07-13T03:19:15;100742.19;;;13.48;85.89
80585;BME280;70137;56.482;9.154;2023-07-13T03:21:40;100750.00;;;13.48;85.80
80585;BME280;70137;56.482;9.154;2023-07-13T03:24:06;100751.63;;;13.49;85.92
80585;BME280;70137;56.482;9.154;2023-07-13T03:26:32;100751.44;;;13.50;85.90
80585;BME280;70137;56.482;9.154;2023-07-13T03:28:57;100752.06;;;13.52;85.87
80585;BME280;70137;56.482;9.154;2023-07-13T03:31:26;100749.28;;;13.54;85.47
80585;BME280;70137;56.482;9.154;2023-07-13T03:33:52;100746.31;;;13.57;86.35
80585;BME280;70137;56.482;9.154;2023-07-13T03:36:20;100748.13;;;13.56;86.06
80585;BME280;70137;56.482;9.154;2023-07-13T03:38:51;100740.91;;;13.58;86.03
80585;BME280;70137;56.482;9.154;2023-07-13T03:41:17;100747.75;;;13.59;86.74
80585;BME280;70137;56.482;9.154;2023-07-13T03:43:43;100747.75;;;13.59;86.87
80585;BME280;70137;56.482;9.154;2023-07-13T03:46:09;100753.75;;;13.60;86.70
80585;BME280;70137;56.482;9.154;2023-07-13T03:48:34;100764.00;;;13.61;87.48
80585;BME280;70137;56.482;9.154;2023-07-13T03:51:00;100761.41;;;13.61;87.61
80585;BME280;70137;56.482;9.154;2023-07-13T03:53:26;100761.22;;;13.63;87.07
80585;BME280;70137;56.482;9.154;2023-07-13T03:55:51;100757.44;;;13.65;87.72
80585;BME280;70137;56.482;9.154;2023-07-13T03:58:29;100759.84;;;13.67;87.19
80585;BME280;70137;56.482;9.154;2023-07-13T04:00:56;100763.88;;;13.69;87.55
80585;BME280;70137;56.482;9.154;2023-07-13T04:03:22;100759.47;;;13.70;87.51
80585;BME280;70137;56.482;9.154;2023-07-13T04:05:47;100755.09;;;13.70;86.98
80585;BME280;70137;56.482;9.154;2023-07-13T04:08:13;100757.88;;;13.69;87.41
80585;BME280;70137;56.482;9.154;2023-07-13T04:10:38;100757.72;;;13.70;87.24
80585;BME280;70137;56.482;9.154;2023-07-13T04:13:04;100757.72;;;13.70;86.91
80585;BME280;70137;56.482;9.154;2023-07-13T04:15:31;100763.88;;;13.69;87.98
80585;BME280;70137;56.482;9.154;2023-07-13T04:17:57;100768.28;;;13.69;87.33
80585;BME280;70137;56.482;9.154;2023-07-13T04:20:24;100769.28;;;13.68;87.43
80585;BME280;70137;56.482;9.154;2023-07-13T04:22:50;100765.06;;;13.67;87.26
80585;BME280;70137;56.482;9.154;2023-07-13T04:25:16;100767.28;;;13.70;87.38
80585;BME280;70137;56.482;9.154;2023-07-13T04:27:41;100765.69;;;13.69;87.56
80585;BME280;70137;56.482;9.154;2023-07-13T04:30:07;100760.75;;;13.74;87.56
80585;BME280;70137;56.482;9.154;2023-07-13T04:32:33;100764.59;;;13.78;87.44
80585;BME280;70137;56.482;9.154;2023-07-13T04:34:58;100759.28;;;13.86;87.31
80585;BME280;70137;56.482;9.154;2023-07-13T04:37:25;100765.38;;;13.93;87.56
80585;BME280;70137;56.482;9.154;2023-07-13T04:39:51;100759.44;;;13.99;87.30
80585;BME280;70137;56.482;9.154;2023-07-13T04:42:16;100760.66;;;14.03;86.89
80585;BME280;70137;56.482;9.154;2023-07-13T04:44:42;100764.88;;;14.04;87.13
80585;BME280;70137;56.482;9.154;2023-07-13T04:47:12;100758.06;;;14.03;87.36
80585;BME280;70137;56.482;9.154;2023-07-13T04:49:37;100756.06;;;14.06;87.21
80585;BME280;70137;56.482;9.154;2023-07-13T04:52:03;100758.38;;;14.15;87.02
80585;BME280;70137;56.482;9.154;2023-07-13T04:54:28;100751.25;;;14.24;87.07
80585;BME280;70137;56.482;9.154;2023-07-13T04:56:54;100750.84;;;14.27;86.67
80585;BME280;70137;56.482;9.154;2023-07-13T04:59:19;100751.13;;;14.32;86.53
80585;BME280;70137;56.482;9.154;2023-07-13T05:01:44;100753.97;;;14.37;86.94
80585;BME280;70137;56.482;9.154;2023-07-13T05:04:10;100764.47;;;14.44;86.92
80585;BME280;70137;56.482;9.154;2023-07-13T05:06:36;100763.56;;;14.51;86.84
80585;BME280;70137;56.482;9.154;2023-07-13T05:09:01;100771.59;;;14.56;86.23
80585;BME280;70137;56.482;9.154;2023-07-13T05:11:26;100767.44;;;14.62;86.15
80585;BME280;70137;56.482;9.154;2023-07-13T05:13:52;100768.88;;;14.65;86.25
80585;BME280;70137;56.482;9.154;2023-07-13T05:16:18;100769.13;;;14.70;85.43
80585;BME280;70137;56.482;9.154;2023-07-13T05:18:44;100772.97;;;14.74;85.25
80585;BME280;70137;56.482;9.154;2023-07-13T05:21:10;100769.41;;;14.81;85.81
80585;BME280;70137;56.482;9.154;2023-07-13T05:23:36;100774.69;;;14.88;85.38
80585;BME280;70137;56.482;9.154;2023-07-13T05:26:02;100774.34;;;14.98;85.22
80585;BME280;70137;56.482;9.154;2023-07-13T05:28:28;100773.38;;;15.05;84.83
80585;BME280;70137;56.482;9.154;2023-07-13T05:30:54;100792.13;;;15.15;85.45
80585;BME280;70137;56.482;9.154;2023-07-13T05:33:20;100776.16;;;15.32;84.64
80585;BME280;70137;56.482;9.154;2023-07-13T05:35:46;100783.06;;;15.46;84.52
80585;BME280;70137;56.482;9.154;2023-07-13T05:38:11;100782.06;;;15.54;83.37
80585;BME280;70137;56.482;9.154;2023-07-13T05:40:37;100785.94;;;15.58;83.82
80585;BME280;70137;56.482;9.154;2023-07-13T05:43:03;100796.78;;;15.55;83.95
80585;BME280;70137;56.482;9.154;2023-07-13T05:45:28;100796.94;;;15.53;83.70
80585;BME280;70137;56.482;9.154;2023-07-13T05:47:54;100795.72;;;15.49;84.11
80585;BME280;70137;56.482;9.154;2023-07-13T05:50:19;100793.44;;;15.67;83.93
80585;BME280;70137;56.482;9.154;2023-07-13T05:52:45;100794.06;;;15.76;83.99
80585;BME280;70137;56.482;9.154;2023-07-13T05:55:10;100800.94;;;15.90;84.51
80585;BME280;70137;56.482;9.154;2023-07-13T05:57:37;100787.72;;;16.05;83.28
80585;BME280;70137;56.482;9.154;2023-07-13T06:00:03;100790.13;;;16.07;82.33
80585;BME280;70137;56.482;9.154;2023-07-13T06:02:28;100789.13;;;16.08;82.74
80585;BME280;70137;56.482;9.154;2023-07-13T06:04:53;100793.38;;;16.02;82.88
80585;BME280;70137;56.482;9.154;2023-07-13T06:07:19;100787.31;;;15.95;82.58
80585;BME280;70137;56.482;9.154;2023-07-13T06:09:44;100795.78;;;16.10;82.53
80585;BME280;70137;56.482;9.154;2023-07-13T06:12:10;100795.81;;;16.23;82.17
80585;BME280;70137;56.482;9.154;2023-07-13T06:14:35;100798.22;;;16.25;81.70
80585;BME280;70137;56.482;9.154;2023-07-13T06:17:01;100798.66;;;16.42;81.13
80585;BME280;70137;56.482;9.154;2023-07-13T06:19:26;100794.63;;;16.39;80.12
80585;BME280;70137;56.482;9.154;2023-07-13T06:21:52;100807.91;;;16.31;80.59
80585;BME280;70137;56.482;9.154;2023-07-13T06:24:17;100812.91;;;16.26;80.92
80585;BME280;70137;56.482;9.154;2023-07-13T06:26:43;100815.75;;;16.24;81.13
80585;BME280;70137;56.482;9.154;2023-07-13T06:29:08;100811.50;;;16.17;81.38
80585;BME280;70137;56.482;9.154;2023-07-13T06:31:33;100815.09;;;16.16;81.50
80585;BME280;70137;56.482;9.154;2023-07-13T06:33:59;100820.75;;;16.19;82.35
80585;BME280;70137;56.482;9.154;2023-07-13T06:36:24;100810.88;;;16.15;81.73
80585;BME280;70137;56.482;9.154;2023-07-13T06:38:50;100819.53;;;16.15;81.21
80585;BME280;70137;56.482;9.154;2023-07-13T06:41:15;100814.72;;;16.12;79.96
80585;BME280;70137;56.482;9.154;2023-07-13T06:43:41;100822.34;;;16.20;80.09
80585;BME280;70137;56.482;9.154;2023-07-13T06:46:06;100824.19;;;16.40;79.71
80585;BME280;70137;56.482;9.154;2023-07-13T06:48:32;100828.66;;;16.52;79.40
80585;BME280;70137;56.482;9.154;2023-07-13T06:50:58;100823.22;;;16.54;79.21
80585;BME280;70137;56.482;9.154;2023-07-13T06:53:23;100825.44;;;16.57;78.07
80585;BME280;70137;56.482;9.154;2023-07-13T06:55:49;100822.00;;;16.56;78.15
80585;BME280;70137;56.482;9.154;2023-07-13T06:58:15;100827.44;;;16.55;76.91
80585;BME280;70137;56.482;9.154;2023-07-13T07:00:41;100821.81;;;16.58;77.90
80585;BME280;70137;56.482;9.154;2023-07-13T07:03:07;100815.81;;;16.77;78.28
80585;BME280;70137;56.482;9.154;2023-07-13T07:05:33;100826.06;;;16.79;76.94
80585;BME280;70137;56.482;9.154;2023-07-13T07:07:58;100833.31;;;16.97;76.14
80585;BME280;70137;56.482;9.154;2023-07-13T07:10:25;100838.34;;;17.05;75.72
80585;BME280;70137;56.482;9.154;2023-07-13T07:12:50;100841.97;;;17.24;75.88
80585;BME280;70137;56.482;9.154;2023-07-13T07:15:17;100839.28;;;17.57;74.17
80585;BME280;70137;56.482;9.154;2023-07-13T07:17:43;100843.69;;;17.63;73.88
80585;BME280;70137;56.482;9.154;2023-07-13T07:20:09;100840.91;;;17.44;71.89
80585;BME280;70137;56.482;9.154;2023-07-13T07:22:35;100848.78;;;17.44;71.92
80585;BME280;70137;56.482;9.154;2023-07-13T07:25:00;100837.22;;;17.72;72.88
80585;BME280;70137;56.482;9.154;2023-07-13T07:27:26;100838.44;;;17.76;70.51
80585;BME280;70137;56.482;9.154;2023-07-13T07:29:52;100843.19;;;17.99;67.49
80585;BME280;70137;56.482;9.154;2023-07-13T07:32:18;100841.03;;;18.21;68.02
80585;BME280;70137;56.482;9.154;2023-07-13T07:34:44;100845.03;;;18.30;67.25
80585;BME280;70137;56.482;9.154;2023-07-13T07:37:11;100841.81;;;18.28;71.53
80585;BME280;70137;56.482;9.154;2023-07-13T07:39:37;100845.88;;;18.55;72.03
80585;BME280;70137;56.482;9.154;2023-07-13T07:42:03;100845.63;;;18.64;72.50
80585;BME280;70137;56.482;9.154;2023-07-13T07:44:30;100847.63;;;18.62;71.83
80585;BME280;70137;56.482;9.154;2023-07-13T07:46:56;100850.25;;;18.62;71.98
80585;BME280;70137;56.482;9.154;2023-07-13T07:49:21;100851.94;;;18.56;70.86
80585;BME280;70137;56.482;9.154;2023-07-13T07:51:47;100847.22;;;18.33;70.15
80585;BME280;70137;56.482;9.154;2023-07-13T07:54:12;100857.66;;;18.08;70.50
80585;BME280;70137;56.482;9.154;2023-07-13T07:56:38;100852.09;;;17.91;72.04
80585;BME280;70137;56.482;9.154;2023-07-13T07:59:03;100855.53;;;17.85;71.28
80585;BME280;70137;56.482;9.154;2023-07-13T08:01:29;100849.31;;;17.73;70.86
80585;BME280;70137;56.482;9.154;2023-07-13T08:03:54;100846.91;;;17.71;71.59
80585;BME280;70137;56.482;9.154;2023-07-13T08:06:20;100845.34;;;18.09;71.02
80585;BME280;70137;56.482;9.154;2023-07-13T08:08:47;100843.53;;;18.41;68.29
80585;BME280;70137;56.482;9.154;2023-07-13T08:11:13;100839.38;;;18.65;65.69
80585;BME280;70137;56.482;9.154;2023-07-13T08:13:38;100845.44;;;18.90;67.38
80585;BME280;70137;56.482;9.154;2023-07-13T08:16:05;100837.19;;;19.11;64.22
80585;BME280;70137;56.482;9.154;2023-07-13T08:18:31;100849.59;;;19.23;61.57
80585;BME280;70137;56.482;9.154;2023-07-13T08:20:57;100841.44;;;19.31;64.09
80585;BME280;70137;56.482;9.154;2023-07-13T08:23:25;100844.81;;;19.56;64.17
80585;BME280;70137;56.482;9.154;2023-07-13T08:25:52;100842.09;;;19.81;65.46
80585;BME280;70137;56.482;9.154;2023-07-13T08:28:19;100841.16;;;20.06;60.68
80585;BME280;70137;56.482;9.154;2023-07-13T08:30:45;100855.53;;;20.21;59.26
80585;BME280;70137;56.482;9.154;2023-07-13T08:33:15;100845.44;;;20.37;56.01
80585;BME280;70137;56.482;9.154;2023-07-13T08:35:40;100849.81;;;20.43;57.11
80585;BME280;70137;56.482;9.154;2023-07-13T08:38:06;100855.78;;;20.50;55.89
80585;BME280;70137;56.482;9.154;2023-07-13T08:40:33;100849.50;;;20.63;57.30
80585;BME280;70137;56.482;9.154;2023-07-13T08:42:59;100858.59;;;20.78;56.27
80585;BME280;70137;56.482;9.154;2023-07-13T08:48:12;100856.19;;;21.24;55.64
80585;BME280;70137;56.482;9.154;2023-07-13T08:53:23;100861.56;;;20.94;55.75
80585;BME280;70137;56.482;9.154;2023-07-13T08:55:57;100862.63;;;21.04;55.89
80585;BME280;70137;56.482;9.154;2023-07-13T08:58:25;100857.69;;;21.08;55.11
80585;BME280;70137;56.482;9.154;2023-07-13T09:04:21;100858.34;;;20.38;55.72
80585;BME280;70137;56.482;9.154;2023-07-13T09:11:58;100870.88;;;20.43;56.32
80585;BME280;70137;56.482;9.154;2023-07-13T09:16:56;100868.09;;;20.79;55.82
80585;BME280;70137;56.482;9.154;2023-07-13T09:19:28;100872.47;;;20.97;52.36
80585;BME280;70137;56.482;9.154;2023-07-13T09:21:55;100874.41;;;21.25;54.75
80585;BME280;70137;56.482;9.154;2023-07-13T09:24:38;100881.84;;;21.52;52.28
80585;BME280;70137;56.482;9.154;2023-07-13T09:27:24;100875.94;;;21.85;53.95
80585;BME280;70137;56.482;9.154;2023-07-13T09:30:10;100882.34;;;22.00;52.80
80585;BME280;70137;56.482;9.154;2023-07-13T09:32:50;100886.59;;;21.90;51.73
80585;BME280;70137;56.482;9.154;2023-07-13T09:35:19;100874.56;;;21.94;49.23
80585;BME280;70137;56.482;9.154;2023-07-13T09:37:46;100881.97;;;22.09;50.14
80585;BME280;70137;56.482;9.154;2023-07-13T09:40:24;100883.88;;;22.25;51.41
80585;BME280;70137;56.482;9.154;2023-07-13T09:42:53;100886.44;;;22.20;49.74
80585;BME280;70137;56.482;9.154;2023-07-13T09:45:29;100892.09;;;22.12;50.79
80585;BME280;70137;56.482;9.154;2023-07-13T09:48:00;100893.56;;;22.08;49.92
80585;BME280;70137;56.482;9.154;2023-07-13T09:50:28;100896.22;;;22.08;49.58
80585;BME280;70137;56.482;9.154;2023-07-13T09:52:54;100894.81;;;22.17;49.70
80585;BME280;70137;56.482;9.154;2023-07-13T09:55:27;100889.88;;;22.09;50.45
80585;BME280;70137;56.482;9.154;2023-07-13T09:57:54;100898.59;;;22.21;51.10
80585;BME280;70137;56.482;9.154;2023-07-13T10:00:29;100902.47;;;22.47;51.41
80585;BME280;70137;56.482;9.154;2023-07-13T10:03:05;100899.47;;;22.26;50.34
80585;BME280;70137;56.482;9.154;2023-07-13T10:05:38;100900.22;;;21.98;50.92
80585;BME280;70137;56.482;9.154;2023-07-13T10:08:04;100897.94;;;22.02;51.10
80585;BME280;70137;56.482;9.154;2023-07-13T10:10:32;100898.59;;;21.57;50.34
80585;BME280;70137;56.482;9.154;2023-07-13T10:13:01;100907.28;;;20.99;49.80
80585;BME280;70137;56.482;9.154;2023-07-13T10:15:27;100909.03;;;21.17;51.90
80585;BME280;70137;56.482;9.154;2023-07-13T10:17:54;100902.38;;;21.73;50.14
80585;BME280;70137;56.482;9.154;2023-07-13T10:20:21;100894.38;;;22.08;48.48
80585;BME280;70137;56.482;9.154;2023-07-13T10:23:02;100901.13;;;22.16;48.59
80585;BME280;70137;56.482;9.154;2023-07-13T10:25:33;100896.25;;;22.24;48.50
80585;BME280;70137;56.482;9.154;2023-07-13T10:28:15;100896.38;;;22.46;48.92
80585;BME280;70137;56.482;9.154;2023-07-13T10:30:46;100898.91;;;22.70;43.91
80585;BME280;70137;56.482;9.154;2023-07-13T10:33:13;100889.69;;;22.55;42.28
80585;BME280;70137;56.482;9.154;2023-07-13T10:35:42;100898.16;;;22.57;47.80
80585;BME280;70137;56.482;9.154;2023-07-13T10:38:14;100895.59;;;23.08;48.47
80585;BME280;70137;56.482;9.154;2023-07-13T10:40:46;100892.69;;;23.09;48.55
80585;BME280;70137;56.482;9.154;2023-07-13T10:43:22;100888.44;;;22.92;49.29
80585;BME280;70137;56.482;9.154;2023-07-13T10:45:51;100895.34;;;22.93;48.46
80585;BME280;70137;56.482;9.154;2023-07-13T10:48:20;100900.78;;;22.86;49.36
80585;BME280;70137;56.482;9.154;2023-07-13T10:50:49;100904.63;;;22.95;47.76
80585;BME280;70137;56.482;9.154;2023-07-13T10:53:36;100903.19;;;22.88;46.75
80585;BME280;70137;56.482;9.154;2023-07-13T10:56:05;100900.63;;;22.31;49.92
80585;BME280;70137;56.482;9.154;2023-07-13T10:58:41;100901.66;;;22.46;49.29
80585;BME280;70137;56.482;9.154;2023-07-13T11:01:17;100908.19;;;22.72;49.10
80585;BME280;70137;56.482;9.154;2023-07-13T11:06:29;100906.38;;;23.06;49.25
80585;BME280;70137;56.482;9.154;2023-07-13T11:09:17;100909.69;;;23.52;46.71
80585;BME280;70137;56.482;9.154;2023-07-13T11:11:43;100911.84;;;23.55;46.28
80585;BME280;70137;56.482;9.154;2023-07-13T11:14:42;100916.25;;;23.66;46.45
80585;BME280;70137;56.482;9.154;2023-07-13T11:23:41;100922.09;;;22.96;48.94
80585;BME280;70137;56.482;9.154;2023-07-13T11:25:42;100941.06;;;22.93;48.01
80585;BME280;70137;56.482;9.154;2023-07-13T11:30:41;100932.59;;;22.63;48.48
80585;BME280;70137;56.482;9.154;2023-07-13T11:36:04;100933.72;;;22.21;50.60
80585;BME280;70137;56.482;9.154;2023-07-13T11:38:38;100944.78;;;21.95;50.12
80585;BME280;70137;56.482;9.154;2023-07-13T11:41:10;100956.00;;;21.90;51.07
80585;BME280;70137;56.482;9.154;2023-07-13T11:43:41;100954.41;;;22.13;51.68
80585;BME280;70137;56.482;9.154;2023-07-13T11:46:21;100958.91;;;22.29;52.17
80585;BME280;70137;56.482;9.154;2023-07-13T11:48:47;100954.03;;;22.49;54.62
80585;BME280;70137;56.482;9.154;2023-07-13T11:51:31;100975.44;;;22.36;55.90
80585;BME280;70137;56.482;9.154;2023-07-13T11:54:03;100973.19;;;22.16;57.02
80585;BME280;70137;56.482;9.154;2023-07-13T11:56:29;100977.00;;;21.97;57.41
80585;BME280;70137;56.482;9.154;2023-07-13T11:58:59;100980.66;;;22.19;59.05
80585;BME280;70137;56.482;9.154;2023-07-13T12:01:30;100977.22;;;22.59;59.38
80585;BME280;70137;56.482;9.154;2023-07-13T12:04:00;100977.31;;;22.81;58.28
80585;BME280;70137;56.482;9.154;2023-07-13T12:06:33;100977.16;;;22.71;56.58
80585;BME280;70137;56.482;9.154;2023-07-13T12:09:03;100982.19;;;22.44;57.19
80585;BME280;70137;56.482;9.154;2023-07-13T12:11:41;100991.09;;;22.26;57.10
80585;BME280;70137;56.482;9.154;2023-07-13T12:14:18;100983.88;;;22.10;55.97
80585;BME280;70137;56.482;9.154;2023-07-13T12:16:46;100995.53;;;22.37;56.34
80585;BME280;70137;56.482;9.154;2023-07-13T12:19:25;100982.13;;;22.55;56.57
80585;BME280;70137;56.482;9.154;2023-07-13T12:21:57;100983.50;;;22.87;56.67
80585;BME280;70137;56.482;9.154;2023-07-13T12:24:24;100976.16;;;23.22;54.17
80585;BME280;70137;56.482;9.154;2023-07-13T12:27:02;100973.84;;;23.26;52.39
80585;BME280;70137;56.482;9.154;2023-07-13T12:29:29;100984.66;;;23.41;49.14
80585;BME280;70137;56.482;9.154;2023-07-13T12:31:55;100975.78;;;23.30;48.86
80585;BME280;70137;56.482;9.154;2023-07-13T12:34:23;100981.47;;;23.22;46.61
80585;BME280;70137;56.482;9.154;2023-07-13T12:36:56;100986.59;;;22.83;48.22
80585;BME280;70137;56.482;9.154;2023-07-13T12:39:44;100986.50;;;22.90;48.31
80585;BME280;70137;56.482;9.154;2023-07-13T12:42:31;100983.13;;;22.95;49.36
80585;BME280;70137;56.482;9.154;2023-07-13T12:47:23;100986.75;;;23.39;49.55
80585;BME280;70137;56.482;9.154;2023-07-13T12:49:53;100982.66;;;23.48;48.13
80585;BME280;70137;56.482;9.154;2023-07-13T12:52:33;100989.88;;;23.36;48.17
80585;BME280;70137;56.482;9.154;2023-07-13T12:55:06;100993.63;;;23.06;48.53
80585;BME280;70137;56.482;9.154;2023-07-13T12:57:41;100991.28;;;22.93;47.48
80585;BME280;70137;56.482;9.154;2023-07-13T13:00:37;100994.47;;;22.78;48.43
80585;BME280;70137;56.482;9.154;2023-07-13T13:05:44;100987.84;;;22.64;48.06
80585;BME280;70137;56.482;9.154;2023-07-13T13:08:11;101003.38;;;22.61;47.27
80585;BME280;70137;56.482;9.154;2023-07-13T13:10:37;100997.44;;;22.53;47.54
80585;BME280;70137;56.482;9.154;2023-07-13T13:13:02;101005.88;;;22.67;48.26
80585;BME280;70137;56.482;9.154;2023-07-13T13:15:28;100997.53;;;22.87;46.92
80585;BME280;70137;56.482;9.154;2023-07-13T13:17:55;100995.53;;;22.66;47.50
80585;BME280;70137;56.482;9.154;2023-07-13T13:20:22;101007.00;;;22.71;48.83
80585;BME280;70137;56.482;9.154;2023-07-13T13:22:48;101007.81;;;23.00;51.66
80585;BME280;70137;56.482;9.154;2023-07-13T13:25:14;101012.06;;;23.01;48.53
80585;BME280;70137;56.482;9.154;2023-07-13T13:27:43;101013.97;;;23.06;49.46
80585;BME280;70137;56.482;9.154;2023-07-13T13:30:17;101017.28;;;23.30;47.52
80585;BME280;70137;56.482;9.154;2023-07-13T13:32:45;101020.31;;;23.22;47.03